sensor_id;sensor_type;location;lat;lon;timestamp;P1;durP1;ratioP1;P2;durP2;ratioP2
21639;SDS011;10981;45.462;10.974;2023-05-07T00:01:30;15.80;;;14.10;;
21639;SDS011;10981;45.462;10.974;2023-05-07T00:03:58;18.25;;;14.68;;
21639;SDS011;10981;45.462;10.974;2023-05-07T00:06:27;18.88;;;14.43;;
21639;SDS011;10981;45.462;10.974;2023-05-07T00:08:56;16.52;;;13.90;;
21639;SDS011;10981;45.462;10.974;2023-05-07T00:11:25;18.70;;;14.25;;
21639;SDS011;10981;45.462;10.974;2023-05-07T00:13:54;18.95;;;14.50;;
21639;SDS011;10981;45.462;10.974;2023-05-07T00:16:22;20.50;;;15.65;;
21639;SDS011;10981;45.462;10.974;2023-05-07T00:18:51;18.35;;;13.82;;
21639;SDS011;10981;45.462;10.974;2023-05-07T00:21:20;17.98;;;14.38;;
21639;SDS011;10981;45.462;10.974;2023-05-07T00:23:48;19.58;;;14.55;;
21639;SDS011;10981;45.462;10.974;2023-05-07T00:26:16;17.92;;;14.35;;
21639;SDS011;10981;45.462;10.974;2023-05-07T00:28:47;16.35;;;14.52;;
21639;SDS011;10981;45.462;10.974;2023-05-07T00:31:15;22.90;;;15.32;;
21639;SDS011;10981;45.462;10.974;2023-05-07T00:33:44;22.08;;;15.63;;
21639;SDS011;10981;45.462;10.974;2023-05-07T00:36:12;20.83;;;15.40;;
21639;SDS011;10981;45.462;10.974;2023-05-07T00:38:40;25.08;;;16.45;;
21639;SDS011;10981;45.462;10.974;2023-05-07T00:41:09;17.67;;;15.35;;
21639;SDS011;10981;45.462;10.974;2023-05-07T00:43:37;19.92;;;14.48;;
21639;SDS011;10981;45.462;10.974;2023-05-07T00:46:06;22.27;;;15.93;;
21639;SDS011;10981;45.462;10.974;2023-05-07T00:48:34;22.23;;;16.85;;
21639;SDS011;10981;45.462;10.974;2023-05-07T00:51:03;21.80;;;16.90;;
21639;SDS011;10981;45.462;10.974;2023-05-07T00:53:31;20.73;;;16.33;;
21639;SDS011;10981;45.462;10.974;2023-05-07T00:56:00;24.75;;;18.10;;
21639;SDS011;10981;45.462;10.974;2023-05-07T00:58:29;20.67;;;17.50;;
21639;SDS011;10981;45.462;10.974;2023-05-07T01:00:58;22.20;;;17.27;;
21639;SDS011;10981;45.462;10.974;2023-05-07T01:03:26;20.58;;;17.08;;
21639;SDS011;10981;45.462;10.974;2023-05-07T01:05:55;24.95;;;17.08;;
21639;SDS011;10981;45.462;10.974;2023-05-07T01:08:27;20.67;;;15.63;;
21639;SDS011;10981;45.462;10.974;2023-05-07T01:10:57;17.75;;;14.55;;
21639;SDS011;10981;45.462;10.974;2023-05-07T01:13:26;21.58;;;17.40;;
21639;SDS011;10981;45.462;10.974;2023-05-07T01:15:55;22.77;;;15.27;;
21639;SDS011;10981;45.462;10.974;2023-05-07T01:18:24;19.75;;;14.95;;
21639;SDS011;10981;45.462;10.974;2023-05-07T01:20:54;21.42;;;15.40;;
21639;SDS011;10981;45.462;10.974;2023-05-07T01:23:26;17.88;;;15.43;;
21639;SDS011;10981;45.462;10.974;2023-05-07T01:25:56;18.95;;;14.90;;
21639;SDS011;10981;45.462;10.974;2023-05-07T01:28:26;17.98;;;14.60;;
21639;SDS011;10981;45.462;10.974;2023-05-07T01:31:02;16.60;;;14.57;;
21639;SDS011;10981;45.462;10.974;2023-05-07T01:33:34;17.77;;;14.45;;
21639;SDS011;10981;45.462;10.974;2023-05-07T01:36:05;17.67;;;14.75;;
21639;SDS011;10981;45.462;10.974;2023-05-07T01:38:36;19.58;;;15.27;;
21639;SDS011;10981;45.462;10.974;2023-05-07T01:41:06;18.70;;;14.77;;
21639;SDS011;10981;45.462;10.974;2023-05-07T01:43:34;21.45;;;16.23;;
21639;SDS011;10981;45.462;10.974;2023-05-07T01:46:03;21.38;;;18.27;;
21639;SDS011;10981;45.462;10.974;2023-05-07T01:48:32;22.30;;;18.38;;
21639;SDS011;10981;45.462;10.974;2023-05-07T01:51:01;23.92;;;19.20;;
21639;SDS011;10981;45.462;10.974;2023-05-07T01:53:35;26.50;;;20.10;;
21639;SDS011;10981;45.462;10.974;2023-05-07T01:56:04;24.35;;;18.83;;
21639;SDS011;10981;45.462;10.974;2023-05-07T01:58:35;25.08;;;19.88;;
21639;SDS011;10981;45.462;10.974;2023-05-07T02:01:04;27.67;;;20.13;;
21639;SDS011;10981;45.462;10.974;2023-05-07T02:03:32;25.95;;;20.80;;
21639;SDS011;10981;45.462;10.974;2023-05-07T02:06:08;26.80;;;19.88;;
21639;SDS011;10981;45.462;10.974;2023-05-07T02:08:38;27.63;;;19.80;;
21639;SDS011;10981;45.462;10.974;2023-05-07T02:11:07;23.52;;;18.92;;
21639;SDS011;10981;45.462;10.974;2023-05-07T02:13:36;25.83;;;19.75;;
21639;SDS011;10981;45.462;10.974;2023-05-07T02:16:05;24.35;;;18.25;;
21639;SDS011;10981;45.462;10.974;2023-05-07T02:18:33;25.27;;;20.27;;
21639;SDS011;10981;45.462;10.974;2023-05-07T02:21:03;21.65;;;18.65;;
21639;SDS011;10981;45.462;10.974;2023-05-07T02:23:32;23.17;;;17.92;;
21639;SDS011;10981;45.462;10.974;2023-05-07T02:26:01;24.88;;;18.95;;
21639;SDS011;10981;45.462;10.974;2023-05-07T02:28:31;25.88;;;18.98;;
21639;SDS011;10981;45.462;10.974;2023-05-07T02:31:02;25.33;;;17.92;;
21639;SDS011;10981;45.462;10.974;2023-05-07T02:33:31;28.23;;;18.67;;
21639;SDS011;10981;45.462;10.974;2023-05-07T02:36:05;23.80;;;18.42;;
21639;SDS011;10981;45.462;10.974;2023-05-07T02:38:36;26.38;;;18.80;;
21639;SDS011;10981;45.462;10.974;2023-05-07T02:41:04;21.95;;;17.38;;
21639;SDS011;10981;45.462;10.974;2023-05-07T02:43:33;26.15;;;17.90;;
21639;SDS011;10981;45.462;10.974;2023-05-07T02:46:04;25.95;;;18.35;;
21639;SDS011;10981;45.462;10.974;2023-05-07T02:48:38;21.20;;;17.55;;
21639;SDS011;10981;45.462;10.974;2023-05-07T02:51:07;24.05;;;17.58;;
21639;SDS011;10981;45.462;10.974;2023-05-07T02:53:37;20.77;;;16.80;;
21639;SDS011;10981;45.462;10.974;2023-05-07T02:56:05;21.65;;;16.52;;
21639;SDS011;10981;45.462;10.974;2023-05-07T02:58:34;19.63;;;16.20;;
21639;SDS011;10981;45.462;10.974;2023-05-07T03:01:04;21.80;;;17.05;;
21639;SDS011;10981;45.462;10.974;2023-05-07T03:03:38;20.08;;;17.23;;
21639;SDS011;10981;45.462;10.974;2023-05-07T03:06:07;20.20;;;16.58;;
21639;SDS011;10981;45.462;10.974;2023-05-07T03:08:35;23.77;;;18.20;;
21639;SDS011;10981;45.462;10.974;2023-05-07T03:11:03;20.58;;;16.80;;
21639;SDS011;10981;45.462;10.974;2023-05-07T03:13:32;23.00;;;18.33;;
21639;SDS011;10981;45.462;10.974;2023-05-07T03:16:00;26.55;;;18.38;;
21639;SDS011;10981;45.462;10.974;2023-05-07T03:18:29;23.65;;;17.42;;
21639;SDS011;10981;45.462;10.974;2023-05-07T03:20:57;23.65;;;17.95;;
21639;SDS011;10981;45.462;10.974;2023-05-07T03:23:26;28.77;;;19.63;;
21639;SDS011;10981;45.462;10.974;2023-05-07T03:25:54;24.95;;;19.77;;
21639;SDS011;10981;45.462;10.974;2023-05-07T03:28:22;22.50;;;17.52;;
21639;SDS011;10981;45.462;10.974;2023-05-07T03:30:56;21.40;;;16.77;;
21639;SDS011;10981;45.462;10.974;2023-05-07T03:33:25;21.90;;;17.23;;
21639;SDS011;10981;45.462;10.974;2023-05-07T03:35:55;17.38;;;15.10;;
21639;SDS011;10981;45.462;10.974;2023-05-07T03:38:25;20.20;;;16.67;;
21639;SDS011;10981;45.462;10.974;2023-05-07T03:40:54;22.73;;;16.25;;
21639;SDS011;10981;45.462;10.974;2023-05-07T03:43:22;21.02;;;15.02;;
21639;SDS011;10981;45.462;10.974;2023-05-07T03:45:59;19.42;;;15.85;;
21639;SDS011;10981;45.462;10.974;2023-05-07T03:48:28;18.17;;;16.08;;
21639;SDS011;10981;45.462;10.974;2023-05-07T03:50:58;17.27;;;14.32;;
21639;SDS011;10981;45.462;10.974;2023-05-07T03:53:31;18.73;;;14.77;;
21639;SDS011;10981;45.462;10.974;2023-05-07T03:56:00;15.70;;;13.93;;
21639;SDS011;10981;45.462;10.974;2023-05-07T03:58:32;20.40;;;14.32;;
21639;SDS011;10981;45.462;10.974;2023-05-07T04:03:34;17.95;;;14.07;;
21639;SDS011;10981;45.462;10.974;2023-05-07T04:06:04;16.88;;;13.50;;
21639;SDS011;10981;45.462;10.974;2023-05-07T04:08:34;15.43;;;13.20;;
21639;SDS011;10981;45.462;10.974;2023-05-07T04:11:04;18.52;;;14.88;;
21639;SDS011;10981;45.462;10.974;2023-05-07T04:13:35;20.15;;;14.27;;
21639;SDS011;10981;45.462;10.974;2023-05-07T04:16:05;16.83;;;12.73;;
21639;SDS011;10981;45.462;10.974;2023-05-07T04:18:36;21.00;;;15.05;;
21639;SDS011;10981;45.462;10.974;2023-05-07T04:21:05;18.25;;;13.75;;
21639;SDS011;10981;45.462;10.974;2023-05-07T04:23:40;17.40;;;14.82;;
21639;SDS011;10981;45.462;10.974;2023-05-07T04:26:11;21.05;;;15.75;;
21639;SDS011;10981;45.462;10.974;2023-05-07T04:28:42;17.50;;;14.05;;
21639;SDS011;10981;45.462;10.974;2023-05-07T04:31:11;18.08;;;14.75;;
21639;SDS011;10981;45.462;10.974;2023-05-07T04:33:40;20.00;;;14.68;;
21639;SDS011;10981;45.462;10.974;2023-05-07T04:36:12;21.38;;;15.43;;
21639;SDS011;10981;45.462;10.974;2023-05-07T04:38:51;18.35;;;15.25;;
21639;SDS011;10981;45.462;10.974;2023-05-07T04:41:20;20.33;;;15.05;;
21639;SDS011;10981;45.462;10.974;2023-05-07T04:43:49;19.65;;;14.85;;
21639;SDS011;10981;45.462;10.974;2023-05-07T04:46:21;17.02;;;14.43;;
21639;SDS011;10981;45.462;10.974;2023-05-07T04:48:49;21.60;;;15.93;;
21639;SDS011;10981;45.462;10.974;2023-05-07T04:51:18;22.02;;;15.68;;
21639;SDS011;10981;45.462;10.974;2023-05-07T04:53:47;19.58;;;16.83;;
21639;SDS011;10981;45.462;10.974;2023-05-07T04:56:16;19.42;;;15.57;;
21639;SDS011;10981;45.462;10.974;2023-05-07T04:58:46;20.55;;;16.55;;
21639;SDS011;10981;45.462;10.974;2023-05-07T05:01:18;22.85;;;17.08;;
21639;SDS011;10981;45.462;10.974;2023-05-07T05:03:47;22.50;;;16.55;;
21639;SDS011;10981;45.462;10.974;2023-05-07T05:06:16;20.88;;;16.25;;
21639;SDS011;10981;45.462;10.974;2023-05-07T05:08:44;18.90;;;16.38;;
21639;SDS011;10981;45.462;10.974;2023-05-07T05:11:12;18.15;;;15.43;;
21639;SDS011;10981;45.462;10.974;2023-05-07T05:13:42;22.77;;;18.05;;
21639;SDS011;10981;45.462;10.974;2023-05-07T05:16:16;21.30;;;17.00;;
21639;SDS011;10981;45.462;10.974;2023-05-07T05:18:45;25.67;;;17.33;;
21639;SDS011;10981;45.462;10.974;2023-05-07T05:21:16;21.60;;;18.40;;
21639;SDS011;10981;45.462;10.974;2023-05-07T05:23:47;21.90;;;17.83;;
21639;SDS011;10981;45.462;10.974;2023-05-07T05:26:19;25.20;;;18.42;;
21639;SDS011;10981;45.462;10.974;2023-05-07T05:28:51;20.33;;;17.52;;
21639;SDS011;10981;45.462;10.974;2023-05-07T05:31:22;22.75;;;17.52;;
21639;SDS011;10981;45.462;10.974;2023-05-07T05:33:51;24.20;;;17.63;;
21639;SDS011;10981;45.462;10.974;2023-05-07T05:36:19;26.90;;;20.88;;
21639;SDS011;10981;45.462;10.974;2023-05-07T05:38:49;29.45;;;21.98;;
21639;SDS011;10981;45.462;10.974;2023-05-07T05:41:18;30.85;;;23.85;;
21639;SDS011;10981;45.462;10.974;2023-05-07T05:43:48;28.95;;;23.77;;
21639;SDS011;10981;45.462;10.974;2023-05-07T05:46:18;30.48;;;23.35;;
21639;SDS011;10981;45.462;10.974;2023-05-07T05:48:50;30.05;;;22.88;;
21639;SDS011;10981;45.462;10.974;2023-05-07T05:51:18;27.67;;;23.15;;
21639;SDS011;10981;45.462;10.974;2023-05-07T05:53:47;26.05;;;21.50;;
21639;SDS011;10981;45.462;10.974;2023-05-07T05:56:16;29.35;;;22.35;;
21639;SDS011;10981;45.462;10.974;2023-05-07T05:58:44;27.02;;;22.27;;
21639;SDS011;10981;45.462;10.974;2023-05-07T06:01:14;26.30;;;21.55;;
21639;SDS011;10981;45.462;10.974;2023-05-07T06:03:42;26.00;;;20.65;;
21639;SDS011;10981;45.462;10.974;2023-05-07T06:06:14;24.80;;;21.05;;
21639;SDS011;10981;45.462;10.974;2023-05-07T06:08:43;24.75;;;21.13;;
21639;SDS011;10981;45.462;10.974;2023-05-07T06:11:16;26.70;;;21.73;;
21639;SDS011;10981;45.462;10.974;2023-05-07T06:13:46;23.80;;;20.02;;
21639;SDS011;10981;45.462;10.974;2023-05-07T06:16:14;23.55;;;19.58;;
21639;SDS011;10981;45.462;10.974;2023-05-07T06:18:44;25.75;;;20.35;;
21639;SDS011;10981;45.462;10.974;2023-05-07T06:21:15;27.42;;;20.08;;
21639;SDS011;10981;45.462;10.974;2023-05-07T06:23:43;26.25;;;19.13;;
21639;SDS011;10981;45.462;10.974;2023-05-07T06:26:12;28.25;;;20.40;;
21639;SDS011;10981;45.462;10.974;2023-05-07T06:28:43;25.23;;;20.55;;
21639;SDS011;10981;45.462;10.974;2023-05-07T06:31:18;27.02;;;22.02;;
21639;SDS011;10981;45.462;10.974;2023-05-07T06:33:54;26.48;;;22.58;;
21639;SDS011;10981;45.462;10.974;2023-05-07T06:38:58;25.98;;;20.92;;
21639;SDS011;10981;45.462;10.974;2023-05-07T06:41:26;26.30;;;20.13;;
21639;SDS011;10981;45.462;10.974;2023-05-07T06:43:58;26.48;;;20.92;;
21639;SDS011;10981;45.462;10.974;2023-05-07T06:46:38;28.60;;;21.92;;
21639;SDS011;10981;45.462;10.974;2023-05-07T06:49:07;30.13;;;21.83;;
21639;SDS011;10981;45.462;10.974;2023-05-07T06:51:36;28.85;;;22.50;;
21639;SDS011;10981;45.462;10.974;2023-05-07T06:54:04;31.20;;;23.08;;
21639;SDS011;10981;45.462;10.974;2023-05-07T06:56:35;30.13;;;22.50;;
21639;SDS011;10981;45.462;10.974;2023-05-07T06:59:06;27.25;;;21.17;;
21639;SDS011;10981;45.462;10.974;2023-05-07T07:01:38;28.83;;;20.33;;
21639;SDS011;10981;45.462;10.974;2023-05-07T07:04:09;34.58;;;21.25;;
21639;SDS011;10981;45.462;10.974;2023-05-07T07:06:40;26.95;;;19.70;;
21639;SDS011;10981;45.462;10.974;2023-05-07T07:09:12;29.55;;;20.95;;
21639;SDS011;10981;45.462;10.974;2023-05-07T07:11:41;29.02;;;20.98;;
21639;SDS011;10981;45.462;10.974;2023-05-07T07:14:09;28.30;;;20.83;;
21639;SDS011;10981;45.462;10.974;2023-05-07T07:16:45;28.73;;;21.35;;
21639;SDS011;10981;45.462;10.974;2023-05-07T07:19:15;30.15;;;22.55;;
21639;SDS011;10981;45.462;10.974;2023-05-07T07:21:46;27.00;;;22.52;;
21639;SDS011;10981;45.462;10.974;2023-05-07T07:24:15;29.77;;;22.02;;
21639;SDS011;10981;45.462;10.974;2023-05-07T07:26:47;33.33;;;23.27;;
21639;SDS011;10981;45.462;10.974;2023-05-07T07:29:17;29.85;;;22.23;;
21639;SDS011;10981;45.462;10.974;2023-05-07T07:31:47;30.08;;;22.25;;
21639;SDS011;10981;45.462;10.974;2023-05-07T07:34:18;29.27;;;21.40;;
21639;SDS011;10981;45.462;10.974;2023-05-07T07:36:47;28.55;;;20.17;;
21639;SDS011;10981;45.462;10.974;2023-05-07T07:39:18;28.25;;;21.58;;
21639;SDS011;10981;45.462;10.974;2023-05-07T07:41:49;25.25;;;19.45;;
21639;SDS011;10981;45.462;10.974;2023-05-07T07:44:19;27.83;;;21.27;;
21639;SDS011;10981;45.462;10.974;2023-05-07T07:46:52;23.23;;;19.15;;
21639;SDS011;10981;45.462;10.974;2023-05-07T07:49:27;30.52;;;20.00;;
21639;SDS011;10981;45.462;10.974;2023-05-07T07:51:57;26.05;;;18.63;;
21639;SDS011;10981;45.462;10.974;2023-05-07T07:54:27;25.27;;;19.13;;
21639;SDS011;10981;45.462;10.974;2023-05-07T07:56:56;22.58;;;18.00;;
21639;SDS011;10981;45.462;10.974;2023-05-07T07:59:26;32.75;;;21.08;;
21639;SDS011;10981;45.462;10.974;2023-05-07T08:01:54;32.20;;;21.05;;
21639;SDS011;10981;45.462;10.974;2023-05-07T08:04:26;27.42;;;19.95;;
21639;SDS011;10981;45.462;10.974;2023-05-07T08:06:56;31.60;;;19.55;;
21639;SDS011;10981;45.462;10.974;2023-05-07T08:09:25;22.77;;;17.83;;
21639;SDS011;10981;45.462;10.974;2023-05-07T08:11:54;22.80;;;17.35;;
21639;SDS011;10981;45.462;10.974;2023-05-07T08:14:23;25.13;;;17.88;;
21639;SDS011;10981;45.462;10.974;2023-05-07T08:16:51;25.88;;;17.40;;
21639;SDS011;10981;45.462;10.974;2023-05-07T08:19:20;23.35;;;16.42;;
21639;SDS011;10981;45.462;10.974;2023-05-07T08:21:50;25.17;;;16.52;;
21639;SDS011;10981;45.462;10.974;2023-05-07T08:24:19;23.70;;;17.23;;
21639;SDS011;10981;45.462;10.974;2023-05-07T08:26:47;22.65;;;18.40;;
21639;SDS011;10981;45.462;10.974;2023-05-07T08:29:17;28.23;;;18.38;;
21639;SDS011;10981;45.462;10.974;2023-05-07T08:31:46;24.52;;;20.25;;
21639;SDS011;10981;45.462;10.974;2023-05-07T08:34:14;22.88;;;19.13;;
21639;SDS011;10981;45.462;10.974;2023-05-07T08:36:46;22.60;;;18.60;;
21639;SDS011;10981;45.462;10.974;2023-05-07T08:39:18;23.80;;;19.08;;
21639;SDS011;10981;45.462;10.974;2023-05-07T08:41:49;22.80;;;17.17;;
21639;SDS011;10981;45.462;10.974;2023-05-07T08:44:22;31.40;;;20.73;;
21639;SDS011;10981;45.462;10.974;2023-05-07T08:46:53;19.58;;;14.85;;
21639;SDS011;10981;45.462;10.974;2023-05-07T08:49:24;19.60;;;15.02;;
21639;SDS011;10981;45.462;10.974;2023-05-07T08:51:54;19.60;;;16.60;;
21639;SDS011;10981;45.462;10.974;2023-05-07T08:54:24;22.45;;;16.70;;
21639;SDS011;10981;45.462;10.974;2023-05-07T08:56:53;22.92;;;17.52;;
21639;SDS011;10981;45.462;10.974;2023-05-07T08:59:22;22.88;;;18.52;;
21639;SDS011;10981;45.462;10.974;2023-05-07T09:01:52;24.80;;;19.42;;
21639;SDS011;10981;45.462;10.974;2023-05-07T09:04:20;24.73;;;19.60;;
21639;SDS011;10981;45.462;10.974;2023-05-07T09:06:49;24.33;;;19.30;;
21639;SDS011;10981;45.462;10.974;2023-05-07T09:09:21;26.95;;;19.85;;
21639;SDS011;10981;45.462;10.974;2023-05-07T09:11:56;28.17;;;19.65;;
21639;SDS011;10981;45.462;10.974;2023-05-07T09:14:29;24.85;;;21.15;;
21639;SDS011;10981;45.462;10.974;2023-05-07T09:16:58;28.75;;;23.23;;
21639;SDS011;10981;45.462;10.974;2023-05-07T09:19:27;30.42;;;22.77;;
21639;SDS011;10981;45.462;10.974;2023-05-07T09:22:04;26.90;;;22.42;;
21639;SDS011;10981;45.462;10.974;2023-05-07T09:24:47;24.73;;;20.25;;
21639;SDS011;10981;45.462;10.974;2023-05-07T09:27:19;26.77;;;20.73;;
21639;SDS011;10981;45.462;10.974;2023-05-07T09:29:47;23.88;;;21.33;;
21639;SDS011;10981;45.462;10.974;2023-05-07T09:32:16;22.67;;;19.58;;
21639;SDS011;10981;45.462;10.974;2023-05-07T09:34:45;24.77;;;19.58;;
21639;SDS011;10981;45.462;10.974;2023-05-07T09:37:17;23.15;;;19.70;;
21639;SDS011;10981;45.462;10.974;2023-05-07T09:39:46;25.60;;;22.00;;
21639;SDS011;10981;45.462;10.974;2023-05-07T09:42:23;25.25;;;20.38;;
21639;SDS011;10981;45.462;10.974;2023-05-07T09:44:56;25.88;;;20.02;;
21639;SDS011;10981;45.462;10.974;2023-05-07T09:47:31;21.60;;;18.73;;
21639;SDS011;10981;45.462;10.974;2023-05-07T09:50:04;23.25;;;19.30;;
21639;SDS011;10981;45.462;10.974;2023-05-07T09:52:35;23.67;;;20.17;;
21639;SDS011;10981;45.462;10.974;2023-05-07T09:55:07;24.70;;;20.55;;
21639;SDS011;10981;45.462;10.974;2023-05-07T09:57:36;24.58;;;19.70;;
21639;SDS011;10981;45.462;10.974;2023-05-07T10:00:08;26.15;;;20.75;;
21639;SDS011;10981;45.462;10.974;2023-05-07T10:02:57;22.95;;;17.83;;
21639;SDS011;10981;45.462;10.974;2023-05-07T10:05:39;21.63;;;16.83;;
21639;SDS011;10981;45.462;10.974;2023-05-07T10:08:09;22.75;;;16.60;;
21639;SDS011;10981;45.462;10.974;2023-05-07T10:10:40;26.00;;;19.17;;
21639;SDS011;10981;45.462;10.974;2023-05-07T10:13:11;20.75;;;16.77;;
21639;SDS011;10981;45.462;10.974;2023-05-07T10:15:45;23.02;;;19.77;;
21639;SDS011;10981;45.462;10.974;2023-05-07T10:18:15;21.70;;;18.83;;
21639;SDS011;10981;45.462;10.974;2023-05-07T10:20:51;22.77;;;19.63;;
21639;SDS011;10981;45.462;10.974;2023-05-07T10:23:23;23.80;;;20.25;;
21639;SDS011;10981;45.462;10.974;2023-05-07T10:25:57;25.70;;;17.83;;
21639;SDS011;10981;45.462;10.974;2023-05-07T10:28:31;22.02;;;18.83;;
21639;SDS011;10981;45.462;10.974;2023-05-07T10:33:44;22.95;;;16.98;;
21639;SDS011;10981;45.462;10.974;2023-05-07T10:36:17;24.70;;;20.30;;
21639;SDS011;10981;45.462;10.974;2023-05-07T10:38:47;21.63;;;17.95;;
21639;SDS011;10981;45.462;10.974;2023-05-07T10:41:16;21.52;;;16.70;;
21639;SDS011;10981;45.462;10.974;2023-05-07T10:43:47;22.48;;;18.35;;
21639;SDS011;10981;45.462;10.974;2023-05-07T10:46:26;19.85;;;16.55;;
21639;SDS011;10981;45.462;10.974;2023-05-07T10:51:40;19.48;;;17.38;;
21639;SDS011;10981;45.462;10.974;2023-05-07T10:54:20;20.80;;;17.70;;
21639;SDS011;10981;45.462;10.974;2023-05-07T10:56:56;20.73;;;17.48;;
21639;SDS011;10981;45.462;10.974;2023-05-07T10:59:45;19.85;;;16.67;;
21639;SDS011;10981;45.462;10.974;2023-05-07T11:02:21;19.35;;;17.00;;
21639;SDS011;10981;45.462;10.974;2023-05-07T11:08:06;23.63;;;19.63;;
21639;SDS011;10981;45.462;10.974;2023-05-07T11:10:55;25.95;;;20.20;;
21639;SDS011;10981;45.462;10.974;2023-05-07T11:13:54;22.33;;;18.08;;
21639;SDS011;10981;45.462;10.974;2023-05-07T11:16:39;21.92;;;17.10;;
21639;SDS011;10981;45.462;10.974;2023-05-07T11:19:18;21.10;;;18.85;;
21639;SDS011;10981;45.462;10.974;2023-05-07T11:25:17;20.67;;;14.73;;
21639;SDS011;10981;45.462;10.974;2023-05-07T11:28:03;18.33;;;15.18;;
21639;SDS011;10981;45.462;10.974;2023-05-07T11:30:34;17.98;;;15.55;;
21639;SDS011;10981;45.462;10.974;2023-05-07T11:33:04;22.40;;;18.10;;
21639;SDS011;10981;45.462;10.974;2023-05-07T11:35:33;19.40;;;16.65;;
21639;SDS011;10981;45.462;10.974;2023-05-07T11:38:05;24.25;;;19.50;;
21639;SDS011;10981;45.462;10.974;2023-05-07T11:40:35;19.15;;;16.63;;
21639;SDS011;10981;45.462;10.974;2023-05-07T11:43:17;19.20;;;15.95;;
21639;SDS011;10981;45.462;10.974;2023-05-07T11:45:45;25.20;;;17.73;;
21639;SDS011;10981;45.462;10.974;2023-05-07T11:48:15;23.42;;;16.48;;
21639;SDS011;10981;45.462;10.974;2023-05-07T11:50:50;18.98;;;16.48;;
21639;SDS011;10981;45.462;10.974;2023-05-07T11:53:20;18.08;;;15.75;;
21639;SDS011;10981;45.462;10.974;2023-05-07T11:55:52;17.60;;;14.73;;
21639;SDS011;10981;45.462;10.974;2023-05-07T11:58:21;20.17;;;14.77;;
21639;SDS011;10981;45.462;10.974;2023-05-07T12:00:51;19.20;;;15.70;;
21639;SDS011;10981;45.462;10.974;2023-05-07T12:03:20;17.83;;;14.10;;
21639;SDS011;10981;45.462;10.974;2023-05-07T12:05:49;17.50;;;14.70;;
21639;SDS011;10981;45.462;10.974;2023-05-07T12:08:18;15.98;;;13.57;;
21639;SDS011;10981;45.462;10.974;2023-05-07T12:10:48;18.08;;;15.40;;
21639;SDS011;10981;45.462;10.974;2023-05-07T12:13:18;16.58;;;13.68;;
21639;SDS011;10981;45.462;10.974;2023-05-07T12:15:55;15.30;;;11.55;;
21639;SDS011;10981;45.462;10.974;2023-05-07T12:18:23;16.23;;;13.40;;
21639;SDS011;10981;45.462;10.974;2023-05-07T12:20:52;17.92;;;13.38;;
21639;SDS011;10981;45.462;10.974;2023-05-07T12:23:21;18.33;;;13.00;;
21639;SDS011;10981;45.462;10.974;2023-05-07T12:25:50;14.35;;;11.90;;
21639;SDS011;10981;45.462;10.974;2023-05-07T12:28:18;12.55;;;11.20;;
21639;SDS011;10981;45.462;10.974;2023-05-07T12:30:47;14.60;;;12.02;;
21639;SDS011;10981;45.462;10.974;2023-05-07T12:33:18;14.55;;;11.93;;
21639;SDS011;10981;45.462;10.974;2023-05-07T12:35:53;15.77;;;13.68;;
21639;SDS011;10981;45.462;10.974;2023-05-07T12:38:22;18.05;;;12.80;;
21639;SDS011;10981;45.462;10.974;2023-05-07T12:40:53;12.75;;;10.98;;
21639;SDS011;10981;45.462;10.974;2023-05-07T12:43:28;16.63;;;13.30;;
21639;SDS011;10981;45.462;10.974;2023-05-07T12:46:03;14.52;;;12.80;;
21639;SDS011;10981;45.462;10.974;2023-05-07T12:48:35;16.67;;;11.40;;
21639;SDS011;10981;45.462;10.974;2023-05-07T12:51:05;14.07;;;12.15;;
21639;SDS011;10981;45.462;10.974;2023-05-07T12:53:38;15.27;;;12.43;;
21639;SDS011;10981;45.462;10.974;2023-05-07T12:56:10;16.10;;;11.95;;
21639;SDS011;10981;45.462;10.974;2023-05-07T12:58:39;12.30;;;11.13;;
21639;SDS011;10981;45.462;10.974;2023-05-07T13:01:07;12.50;;;11.27;;
21639;SDS011;10981;45.462;10.974;2023-05-07T13:03:37;13.30;;;11.90;;
21639;SDS011;10981;45.462;10.974;2023-05-07T13:06:09;10.68;;;9.57;;
21639;SDS011;10981;45.462;10.974;2023-05-07T13:08:40;19.27;;;11.77;;
21639;SDS011;10981;45.462;10.974;2023-05-07T13:11:12;11.27;;;10.10;;
21639;SDS011;10981;45.462;10.974;2023-05-07T13:13:40;13.30;;;11.68;;
21639;SDS011;10981;45.462;10.974;2023-05-07T13:16:09;13.05;;;11.15;;
21639;SDS011;10981;45.462;10.974;2023-05-07T13:18:39;10.98;;;9.88;;
21639;SDS011;10981;45.462;10.974;2023-05-07T13:21:11;12.63;;;11.32;;
21639;SDS011;10981;45.462;10.974;2023-05-07T13:23:40;12.70;;;10.57;;
21639;SDS011;10981;45.462;10.974;2023-05-07T13:26:08;12.07;;;10.45;;
21639;SDS011;10981;45.462;10.974;2023-05-07T13:28:55;12.07;;;10.65;;
21639;SDS011;10981;45.462;10.974;2023-05-07T13:31:24;11.18;;;8.85;;
21639;SDS011;10981;45.462;10.974;2023-05-07T13:33:52;9.73;;;8.75;;
21639;SDS011;10981;45.462;10.974;2023-05-07T13:36:23;10.38;;;8.68;;
21639;SDS011;10981;45.462;10.974;2023-05-07T13:38:51;10.77;;;8.88;;
21639;SDS011;10981;45.462;10.974;2023-05-07T13:41:19;9.20;;;8.25;;
21639;SDS011;10981;45.462;10.974;2023-05-07T13:43:48;8.23;;;7.25;;
21639;SDS011;10981;45.462;10.974;2023-05-07T13:46:16;9.25;;;8.35;;
21639;SDS011;10981;45.462;10.974;2023-05-07T13:48:45;9.57;;;8.57;;
21639;SDS011;10981;45.462;10.974;2023-05-07T13:51:13;11.88;;;9.10;;
21639;SDS011;10981;45.462;10.974;2023-05-07T13:53:41;10.00;;;7.70;;
21639;SDS011;10981;45.462;10.974;2023-05-07T13:56:10;11.35;;;8.40;;
21639;SDS011;10981;45.462;10.974;2023-05-07T13:58:38;8.45;;;7.30;;
21639;SDS011;10981;45.462;10.974;2023-05-07T14:01:22;8.48;;;7.28;;
21639;SDS011;10981;45.462;10.974;2023-05-07T14:03:51;9.07;;;8.10;;
21639;SDS011;10981;45.462;10.974;2023-05-07T14:06:19;10.30;;;7.20;;
21639;SDS011;10981;45.462;10.974;2023-05-07T14:08:48;7.78;;;6.97;;
21639;SDS011;10981;45.462;10.974;2023-05-07T14:11:17;9.13;;;8.23;;
21639;SDS011;10981;45.462;10.974;2023-05-07T14:13:45;8.80;;;8.00;;
21639;SDS011;10981;45.462;10.974;2023-05-07T14:16:14;8.32;;;7.40;;
21639;SDS011;10981;45.462;10.974;2023-05-07T14:18:44;8.77;;;7.25;;
21639;SDS011;10981;45.462;10.974;2023-05-07T14:21:12;11.20;;;8.30;;
21639;SDS011;10981;45.462;10.974;2023-05-07T14:23:41;8.15;;;7.35;;
21639;SDS011;10981;45.462;10.974;2023-05-07T14:26:09;9.18;;;8.10;;
21639;SDS011;10981;45.462;10.974;2023-05-07T14:28:39;6.85;;;6.30;;
21639;SDS011;10981;45.462;10.974;2023-05-07T14:31:13;9.20;;;8.40;;
21639;SDS011;10981;45.462;10.974;2023-05-07T14:33:41;10.68;;;8.73;;
21639;SDS011;10981;45.462;10.974;2023-05-07T14:36:10;9.30;;;7.75;;
21639;SDS011;10981;45.462;10.974;2023-05-07T14:38:38;8.32;;;7.53;;
21639;SDS011;10981;45.462;10.974;2023-05-07T14:41:06;8.65;;;7.22;;
21639;SDS011;10981;45.462;10.974;2023-05-07T14:43:35;11.68;;;7.55;;
21639;SDS011;10981;45.462;10.974;2023-05-07T14:46:03;11.05;;;7.78;;
21639;SDS011;10981;45.462;10.974;2023-05-07T14:48:31;15.88;;;8.27;;